Jaipur, India

8:46 AM IST on August 21, 2014 (GMT +0530)
Jaipur | Change Station
CLOSE
Current Station
Airport
Location: Jaipur,
Elevation: 1280 ft
Nearby Weather Stations

Elev 1280 ft 26.82 °N, 75.81 °E | Updated 46 minutes ago

Haze
Haze
82 °F
Feels Like 86 °F
N
9
Wind Variable Wind from WSW

Today
High -- | Low -- °F
--% Chance of Precip.
Yesterday
High -- | Low -- °F
Precip. -- in
6:01 AM 6:58 PM
Waning Crescent, 17% visible
Pressure 29.74 in
Visibility 2.2 miles
Clouds Few 10000 ft
Heat Index 86 °F
Dew Point 70 °F
Humidity 66%
Rainfall 0.00 in
Snow Depth Not available.
UV 3 out of 12
Pollen Not available.
Air Quality Not available.
Flu Activity Not available.
METAR VIJP 210230Z 25008KT 3500 HZ FEW100 28/21 Q1007 NOSIG

More Conditions Fewer Conditions

Pressure 29.74 in
Visibility 2.2 miles
Clouds Few 10000 ft
Heat Index 86 °F
Dew Point 70 °F
Humidity 66%
Rainfall 0.00 in
Snow Depth Not available.
UV 3 out of 12
Pollen Not available.
Air Quality Not available.
Flu Activity Not available.
METAR VIJP 210230Z 25008KT 3500 HZ FEW100 28/21 Q1007 NOSIG

More Conditions Fewer Conditions

10-Day Weather Forecast

Almanac

Astronomy

Aug. 21, 2014 Rise Set
Actual Time 6:01 AM IST 6:58 PM IST
Civil Twilight 5:37 AM IST 7:22 PM IST
Nautical Twilight 5:08 AM IST 7:50 PM IST
Astronomical Twilight 4:39 AM IST 8:19 PM IST
Moon 2:17 AM IST 3:59 PM IST
Length of Visible Light 13h 45m
Length of Day
12h 57m
Tomorrow will be 1m 26s shorter.
Waning Crescent, 17% of the Moon is Illuminated
Aug 20
Waning Crescent
Aug 25
New
Sep 2
First Quarter
Sep 8
Full
Sep 15
Last Quarter

Yesterday's Extremes

Country Highs Country Lows

Community

WunderPhotos

Upload Photos

1,745,843 photos uploaded!

Nearby

Snow Depth

Not available.

Earthquake Activity

City Distance Mag. Time & Date
No recent earthquake activity has been reported nearby.
Minimum magnitude displayed is 2.5.

Coastal Water Temperatures

Place Temperature
No Stations Reporting

Nearby Weather Stations